Auburn, Alabama
Current Conditions -  °F | °C
As of 9:55 PM on Saturday 20 Dec 2014 (Local Time) from KAUO Reporting Station
Overcast Overcast  
Wind Chill: 45°   Ceiling: 3400
Heat Index: 48°   Visibility: 8mi
Dew Point: 43°   Wind: 7mph
Humidity: 82%   Direction: 50°NE
Pressure: 30.19"   Gusts: NA
Location:  32.61°N, 85.48°W
Report Text: KAUO 210355Z AUTO 05006KT 8SM OVC034 09/06 A3019 RMK AO1
Loading
Personal Weather Stations






























Interactive Weather Map New forecast layout! Learn more

10-Day Weather Forecast

Advertisements
Track Severe Weather on mobile